Time;durP1;ratioP1;P1;durP2;ratioP2;P2;SDS_P1;SDS_P2;PMS_P1;PMS_P2;Temp;Humidity;BMP_temperature;BMP_pressure;BME280_temperature;BME280_humidity;BME280_pressure;Samples;Min_cycle;Max_cycle;Signal;HPM_P1;HPM_P2
2022/12/22 03:26:21;;;;;;;6.60;6.30;;;;;;;8.79;100.00;96081.94;4956085;29;20184;-69
2022/12/22 03:28:47;;;;;;;5.63;5.33;;;;;;;8.64;100.00;96073.78;4955842;28;20552;-66
2022/12/22 03:31:12;;;;;;;5.80;5.30;;;;;;;8.60;100.00;96070.03;4955710;29;20177;-66
2022/12/22 03:33:38;;;;;;;5.40;5.10;;;;;;;8.67;100.00;96075.94;4955406;29;20256;-68
2022/12/22 03:36:05;;;;;;;6.23;5.93;;;;;;;8.66;100.00;96082.19;4953421;29;20209;-68
2022/12/22 03:38:30;;;;;;;5.97;5.63;;;;;;;8.69;100.00;96079.13;4955605;29;20205;-68
2022/12/22 03:40:56;;;;;;;7.03;6.73;;;;;;;8.70;100.00;96059.78;4955698;28;20429;-68
2022/12/22 03:48:41;;;;;;;6.03;5.63;;;;;;;8.66;100.00;96043.00;4955283;29;20222;-66
2022/12/22 03:51:07;;;;;;;6.33;6.03;;;;;;;8.70;100.00;96025.81;4955183;29;20264;-69
2022/12/22 03:53:32;;;;;;;6.27;5.97;;;;;;;8.70;100.00;96037.06;4931294;29;20196;-68
2022/12/22 03:55:58;;;;;;;10.00;9.57;;;;;;;8.82;100.00;96039.66;4955397;29;20201;-68
2022/12/22 03:58:23;;;;;;;7.43;7.10;;;;;;;8.89;100.00;96037.69;4955190;29;20558;-69
2022/12/22 04:00:49;;;;;;;4.73;4.53;;;;;;;8.95;100.00;96049.81;4955201;28;20204;-68
2022/12/22 04:03:14;;;;;;;4.27;4.07;;;;;;;8.87;100.00;96044.16;4955188;29;20192;-68
2022/12/22 04:05:40;;;;;;;5.60;5.20;;;;;;;8.90;100.00;96041.09;4955222;29;20185;-69
2022/12/22 04:08:06;;;;;;;4.93;4.57;;;;;;;8.95;100.00;96031.53;4955243;29;20695;-69
2022/12/22 04:13:16;;;;;;;3.90;3.70;;;;;;;8.97;100.00;96036.53;4955074;29;20196;-69
2022/12/22 04:15:42;;;;;;;6.67;6.17;;;;;;;8.92;100.00;96031.97;4954787;29;20205;-69
2022/12/22 04:18:07;;;;;;;7.93;7.53;;;;;;;8.99;100.00;96029.22;4953463;28;20267;-69
2022/12/22 04:20:33;;;;;;;7.40;7.00;;;;;;;9.00;100.00;96030.81;4953918;28;20221;-69
2022/12/22 04:22:58;;;;;;;4.10;3.90;;;;;;;9.04;100.00;96018.88;4955015;29;20548;-68
2022/12/22 04:25:25;;;;;;;3.67;3.43;;;;;;;9.07;100.00;96019.22;4954961;29;20177;-69
2022/12/22 04:27:51;;;;;;;3.43;3.23;;;;;;;9.15;100.00;96018.00;4954673;29;20181;-69
2022/12/22 04:30:17;;;;;;;3.80;3.63;;;;;;;9.17;100.00;96021.97;4954538;28;20209;-69
2022/12/22 04:32:42;;;;;;;4.40;4.10;;;;;;;9.20;100.00;96007.63;4954871;29;20283;-68
2022/12/22 04:35:09;;;;;;;8.97;8.53;;;;;;;9.07;100.00;96008.75;4952326;29;20194;-69
2022/12/22 04:37:35;;;;;;;9.33;8.93;;;;;;;9.13;100.00;95999.97;4954783;29;20264;-68
2022/12/22 04:40:02;;;;;;;7.70;7.30;;;;;;;9.08;100.00;95996.47;4955246;28;20213;-68
2022/12/22 04:42:28;;;;;;;9.67;8.87;;;;;;;8.96;100.00;95991.31;4954771;29;20181;-68
2022/12/22 04:44:54;;;;;;;10.07;9.63;;;;;;;9.05;100.00;95987.28;4954965;29;20670;-69
2022/12/22 04:47:19;;;;;;;9.37;8.87;;;;;;;9.07;100.00;95981.81;4955394;29;20185;-69
2022/12/22 04:49:54;;;;;;;10.57;9.97;;;;;;;9.03;100.00;95971.03;4938243;29;20212;-68
2022/12/22 04:52:19;;;;;;;9.70;9.23;;;;;;;9.06;100.00;95990.69;4936810;29;20689;-68
2022/12/22 04:54:45;;;;;;;5.23;4.83;;;;;;;9.03;100.00;95981.47;4960813;23;20756;-77
2022/12/22 04:57:10;;;;;;;5.27;5.07;;;;;;;9.05;100.00;95966.34;4954251;29;20932;-77
2022/12/22 04:59:35;;;;;;;7.10;5.50;;;;;;;9.12;100.00;95974.84;4954002;29;20188;-77
2022/12/22 05:02:01;;;;;;;3.80;3.60;;;;;;;9.11;100.00;95980.31;4954799;29;20186;-76
2022/12/22 05:04:26;;;;;;;3.47;3.27;;;;;;;9.18;100.00;95975.72;4954104;28;20247;-77
2022/12/22 05:06:51;;;;;;;5.30;4.87;;;;;;;9.13;100.00;95971.22;4953402;29;20228;-76
2022/12/22 05:09:17;;;;;;;4.47;4.27;;;;;;;9.21;100.00;95979.66;4954530;29;20185;-77
2022/12/22 05:11:42;;;;;;;5.17;4.80;;;;;;;9.21;100.00;95975.22;4954830;29;20189;-77
2022/12/22 05:14:07;;;;;;;6.60;6.17;;;;;;;9.20;100.00;95984.09;4954701;29;20185;-77
2022/12/22 05:16:33;;;;;;;7.90;7.50;;;;;;;9.22;100.00;95978.66;4954489;29;20216;-77
2022/12/22 05:18:58;;;;;;;7.73;6.97;;;;;;;9.25;100.00;95981.56;4954537;29;20185;-76
2022/12/22 05:21:23;;;;;;;7.80;7.23;;;;;;;9.23;100.00;95983.63;4954604;29;20276;-76
2022/12/22 05:23:49;;;;;;;8.03;7.33;;;;;;;9.29;100.00;95990.53;4954387;29;20193;-76
2022/12/22 05:26:16;;;;;;;12.00;11.37;;;;;;;9.34;100.00;95984.59;4954098;29;20185;-77
2022/12/22 05:28:42;;;;;;;6.67;6.27;;;;;;;9.24;100.00;95985.22;4954358;29;20193;-76
2022/12/22 05:31:13;;;;;;;8.27;7.57;;;;;;;9.28;100.00;95986.34;4954625;29;20212;-76
2022/12/22 05:33:38;;;;;;;6.57;6.17;;;;;;;9.29;100.00;95985.31;4954347;29;20656;-76
2022/12/22 05:36:04;;;;;;;4.90;4.43;;;;;;;9.30;100.00;95992.13;4954378;29;20201;-77
2022/12/22 05:38:30;;;;;;;5.90;4.50;;;;;;;9.27;100.00;95989.19;4936812;29;20197;-76
2022/12/22 05:40:55;;;;;;;4.27;3.80;;;;;;;9.30;100.00;95980.88;4938508;29;20185;-76
2022/12/22 05:43:20;;;;;;;5.87;5.43;;;;;;;9.29;100.00;95969.63;4954346;29;20196;-76
2022/12/22 05:45:46;;;;;;;4.77;4.47;;;;;;;9.31;100.00;95979.81;4954419;29;20194;-76
2022/12/22 05:48:12;;;;;;;5.53;5.03;;;;;;;9.24;100.00;95980.00;4953535;29;20206;-76
2022/12/22 05:50:37;;;;;;;7.30;6.90;;;;;;;9.24;100.00;95971.38;4954130;29;20245;-77
2022/12/22 05:53:04;;;;;;;7.80;7.10;;;;;;;9.27;100.00;95974.28;4953429;28;20201;-76
2022/12/22 05:55:29;;;;;;;5.87;5.37;;;;;;;9.29;100.00;95980.09;4953427;28;20236;-76
2022/12/22 05:57:55;;;;;;;5.57;5.10;;;;;;;9.27;100.00;95989.19;4953516;29;20189;-76
2022/12/22 06:00:21;;;;;;;7.30;6.67;;;;;;;9.27;100.00;95976.91;4936578;29;20186;-76
2022/12/22 06:02:46;;;;;;;4.77;4.03;;;;;;;9.26;100.00;95982.34;4953691;29;20311;-77
2022/12/22 06:05:13;;;;;;;4.97;4.30;;;;;;;9.20;100.00;95973.66;4954225;29;20208;-77
2022/12/22 06:07:39;;;;;;;4.13;3.83;;;;;;;9.11;100.00;95967.22;4936694;29;20264;-77
2022/12/22 06:10:06;;;;;;;4.23;4.00;;;;;;;9.04;100.00;95977.03;4953832;29;20621;-77
2022/12/22 06:12:32;;;;;;;7.27;6.67;;;;;;;9.01;100.00;95974.91;4936875;29;20582;-77
2022/12/22 06:14:57;;;;;;;6.17;5.57;;;;;;;8.96;100.00;95978.25;4953751;29;20201;-77
2022/12/22 06:17:22;;;;;;;5.73;4.73;;;;;;;8.94;100.00;95969.03;4957578;28;20216;-77
2022/12/22 06:19:48;;;;;;;7.60;4.60;;;;;;;8.88;100.00;95972.59;4957900;29;20185;-77
2022/12/22 06:22:13;;;;;;;5.17;4.70;;;;;;;8.79;100.00;95968.78;4957338;29;20232;-78
2022/12/22 06:24:38;;;;;;;5.37;4.80;;;;;;;8.72;100.00;95969.72;4939660;29;20200;-78
2022/12/22 06:27:04;;;;;;;7.90;4.90;;;;;;;8.72;100.00;95968.94;4939455;29;20190;-77
2022/12/22 06:29:29;;;;;;;5.33;4.77;;;;;;;8.73;100.00;95973.13;4957938;29;20177;-76
2022/12/22 06:31:55;;;;;;;7.57;5.43;;;;;;;8.72;100.00;95972.34;4957035;29;20189;-78
2022/12/22 06:34:21;;;;;;;6.77;4.90;;;;;;;8.72;100.00;95974.94;4956327;29;20555;-75
2022/12/22 06:36:46;;;;;;;6.17;5.57;;;;;;;8.76;100.00;95986.50;4955484;29;20690;-77
2022/12/22 06:39:15;;;;;;;5.63;4.83;;;;;;;8.69;100.00;95982.47;4956655;29;20264;-78
2022/12/22 06:44:25;;;;;;;5.70;5.20;;;;;;;8.59;100.00;95964.78;4956273;29;20554;-76
2022/12/22 06:46:51;;;;;;;6.97;5.03;;;;;;;8.59;100.00;95970.00;4956628;29;20197;-79
2022/12/22 06:49:17;;;;;;;5.37;4.97;;;;;;;8.64;100.00;95967.47;4956601;29;20189;-78
2022/12/22 06:51:42;;;;;;;6.87;4.93;;;;;;;8.72;100.00;95966.31;4947760;28;20182;-79
2022/12/22 06:54:08;;;;;;;9.03;6.27;;;;;;;8.73;100.00;95978.34;4951533;28;20308;-79
2022/12/22 06:56:33;;;;;;;5.93;4.40;;;;;;;8.76;100.00;95978.66;4956006;29;20204;-79
2022/12/22 06:58:59;;;;;;;9.43;7.57;;;;;;;8.81;100.00;95983.19;4956521;29;20586;-79
2022/12/22 07:01:24;;;;;;;8.67;6.17;;;;;;;8.91;100.00;95978.16;4956721;29;20241;-80
2022/12/22 07:03:49;;;;;;;5.87;5.00;;;;;;;8.95;100.00;95984.50;4956835;29;20194;-80
2022/12/22 07:06:17;;;;;;;8.67;6.87;;;;;;;8.97;100.00;95985.03;4956424;29;20193;-80
2022/12/22 07:08:43;;;;;;;7.53;5.20;;;;;;;9.03;100.00;95989.31;4956231;29;20197;-80
2022/12/22 07:11:08;;;;;;;6.33;5.03;;;;;;;9.04;100.00;95992.72;4956706;29;20199;-79
2022/12/22 07:13:34;;;;;;;9.93;6.43;;;;;;;9.01;100.00;95998.44;4938300;29;20186;-79
2022/12/22 07:16:02;;;;;;;9.47;8.30;;;;;;;9.08;100.00;95999.84;4956484;29;20209;-79
2022/12/22 07:18:32;;;;;;;11.13;5.27;;;;;;;9.13;100.00;95999.97;4956291;29;20213;-79
2022/12/22 07:20:58;;;;;;;9.20;4.83;;;;;;;9.18;100.00;96012.31;4957987;29;20178;-79
2022/12/22 07:23:24;;;;;;;7.30;5.87;;;;;;;9.06;100.00;96001.13;4956680;29;20192;-79
2022/12/22 07:25:50;;;;;;;5.87;4.83;;;;;;;9.01;100.00;95995.81;4956361;29;20189;-80
2022/12/22 07:28:15;;;;;;;8.63;6.07;;;;;;;8.93;100.00;96006.66;4955557;28;20189;-79
2022/12/22 07:30:41;;;;;;;19.80;18.37;;;;;;;8.91;100.00;95998.28;4956140;29;20192;-79
2022/12/22 07:33:06;;;;;;;7.87;4.20;;;;;;;8.95;100.00;96008.00;4955578;29;20192;-78
2022/12/22 07:35:31;;;;;;;6.10;4.20;;;;;;;8.94;100.00;96013.47;4954049;29;20595;-76
2022/12/22 07:37:57;;;;;;;5.73;4.13;;;;;;;9.09;100.00;96016.34;4955677;29;20232;-76
2022/12/22 07:40:22;;;;;;;7.67;4.10;;;;;;;9.16;100.00;96020.41;4955999;29;20197;-76
2022/12/22 07:42:47;;;;;;;7.67;4.47;;;;;;;9.27;100.00;96041.47;4955980;29;20196;-76
2022/12/22 07:45:18;;;;;;;6.87;3.53;;;;;;;9.29;100.00;96027.16;4955911;29;20185;-76
2022/12/22 07:47:44;;;;;;;6.30;3.33;;;;;;;9.30;100.00;96031.34;4955064;29;20250;-76
2022/12/22 07:50:26;;;;;;;7.40;3.43;;;;;;;9.30;100.00;96030.56;4955139;29;20186;-76
2022/12/22 07:53:03;;;;;;;7.33;3.70;;;;;;;9.25;100.00;96023.41;4940144;29;20182;-76
2022/12/22 07:55:34;;;;;;;8.90;4.20;;;;;;;9.04;100.00;96035.34;4954633;28;20244;-75
2022/12/22 07:57:59;;;;;;;12.27;4.17;;;;;;;8.96;100.00;96038.34;4954949;29;20224;-73
2022/12/22 08:00:25;;;;;;;13.00;5.10;;;;;;;9.01;100.00;95996.63;4955760;29;20201;-73
2022/12/22 08:02:52;;;;;;;7.53;4.87;;;;;;;8.99;100.00;95993.44;4955043;29;20268;-73
2022/12/22 08:05:17;;;;;;;7.23;5.07;;;;;;;8.81;100.00;95988.41;4955413;29;20200;-73
2022/12/22 08:07:43;;;;;;;7.33;6.40;;;;;;;8.83;100.00;95988.97;4955065;29;20182;-74
2022/12/22 08:10:10;;;;;;;13.00;6.47;;;;;;;8.89;100.00;95988.03;4955312;29;20213;-75
2022/12/22 08:12:35;;;;;;;7.07;6.33;;;;;;;8.94;100.00;95997.78;4955240;29;20185;-75
2022/12/22 08:15:00;;;;;;;7.57;5.43;;;;;;;8.91;100.00;96004.28;4955123;29;20194;-75
2022/12/22 08:17:27;;;;;;;8.30;6.63;;;;;;;8.96;100.00;95999.16;4955460;29;20715;-73
2022/12/22 08:19:53;;;;;;;10.47;6.53;;;;;;;8.92;100.00;96010.28;4955353;29;20213;-75
2022/12/22 08:22:22;;;;;;;12.70;7.57;;;;;;;8.76;100.00;95988.31;4955112;29;20189;-70
2022/12/22 08:24:48;;;;;;;13.57;7.63;;;;;;;8.76;100.00;95994.34;4955333;29;20241;-75
2022/12/22 08:27:17;;;;;;;9.70;6.33;;;;;;;8.77;100.00;96002.97;4956808;29;20185;-75
2022/12/22 08:29:50;;;;;;;8.33;5.63;;;;;;;8.86;100.00;95996.34;4955177;29;20186;-75
2022/12/22 08:32:16;;;;;;;6.83;4.63;;;;;;;9.00;100.00;96000.25;4954446;29;20174;-76
2022/12/22 08:34:42;;;;;;;13.67;8.70;;;;;;;9.01;100.00;95988.78;4953282;29;20173;-76
2022/12/22 08:37:12;;;;;;;7.03;5.30;;;;;;;10.02;100.00;95992.91;4952384;29;20292;-75
2022/12/22 08:39:39;;;;;;;20.43;7.50;;;;;;;9.75;100.00;95989.38;4946179;29;20650;-76
2022/12/22 08:42:08;;;;;;;11.03;5.77;;;;;;;9.44;100.00;95996.00;4955377;29;20221;-74
2022/12/22 08:44:35;;;;;;;8.83;5.90;;;;;;;9.42;100.00;95999.88;4954708;29;20220;-74
2022/12/22 08:47:01;;;;;;;9.20;5.50;;;;;;;9.37;100.00;96000.59;4954575;29;20193;-74
2022/12/22 08:49:26;;;;;;;7.60;5.53;;;;;;;9.49;100.00;96006.53;4954989;29;20669;-75
2022/12/22 08:51:53;;;;;;;11.40;5.07;;;;;;;9.41;100.00;96014.78;4954060;28;20189;-75
2022/12/22 08:54:19;;;;;;;9.63;5.73;;;;;;;9.45;100.00;96025.56;4960781;28;20236;-74
2022/12/22 08:56:45;;;;;;;7.97;4.03;;;;;;;9.54;100.00;96022.31;4972008;28;20667;-74
2022/12/22 08:59:11;;;;;;;5.33;3.67;;;;;;;9.51;100.00;96033.25;4973560;28;20184;-75
2022/12/22 09:01:38;;;;;;;8.57;4.73;;;;;;;9.81;100.00;96019.03;4973606;28;20492;-75
2022/12/22 09:04:05;;;;;;;8.30;4.63;;;;;;;9.66;100.00;96026.66;4973817;28;20220;-75
2022/12/22 09:06:31;;;;;;;9.47;4.63;;;;;;;9.69;100.00;96031.44;4973969;28;20244;-76
2022/12/22 09:08:59;;;;;;;5.30;3.33;;;;;;;9.82;100.00;96026.66;4973777;28;20199;-75
2022/12/22 09:11:26;;;;;;;8.37;4.77;;;;;;;9.76;100.00;96021.56;4953346;28;20268;-75
2022/12/22 09:13:53;;;;;;;5.03;4.07;;;;;;;9.91;100.00;96013.97;4972610;28;20199;-75
2022/12/22 09:16:19;;;;;;;6.00;4.50;;;;;;;9.98;100.00;96014.56;4971557;28;20209;-75
2022/12/22 09:18:45;;;;;;;7.20;4.63;;;;;;;9.94;100.00;96032.59;4973613;28;20219;-75
2022/12/22 09:21:11;;;;;;;6.20;4.47;;;;;;;9.84;100.00;96032.44;4973567;28;20267;-75
2022/12/22 09:23:36;;;;;;;10.97;4.07;;;;;;;9.74;100.00;96039.34;4974151;28;20188;-75
2022/12/22 09:26:14;;;;;;;10.07;5.17;;;;;;;9.46;100.00;96042.84;4958890;28;20192;-76
2022/12/22 09:28:40;;;;;;;9.17;4.57;;;;;;;9.36;100.00;96032.22;4973333;28;20219;-76
2022/12/22 09:31:06;;;;;;;11.33;4.70;;;;;;;9.37;100.00;96033.78;4973194;28;20254;-75
2022/12/22 09:33:32;;;;;;;7.97;5.53;;;;;;;9.22;100.00;96025.69;4958355;28;20743;-74
2022/12/22 09:35:58;;;;;;;5.00;4.47;;;;;;;9.20;100.00;96036.38;4973638;28;20245;-75
2022/12/22 09:38:26;;;;;;;10.73;5.90;;;;;;;9.14;100.00;96037.34;4973789;28;20181;-75
2022/12/22 09:40:54;;;;;;;9.93;5.33;;;;;;;9.15;100.00;96044.16;4973678;28;20250;-75
2022/12/22 09:43:26;;;;;;;10.60;8.47;;;;;;;9.18;100.00;96047.09;4969517;28;20263;-75
2022/12/22 09:45:52;;;;;;;11.13;7.17;;;;;;;9.10;100.00;96047.47;4950834;28;20188;-74
2022/12/22 09:48:17;;;;;;;13.13;7.33;;;;;;;9.09;100.00;96058.16;4968704;28;20632;-75
2022/12/22 09:50:42;;;;;;;9.90;7.30;;;;;;;9.05;100.00;96050.00;4968070;28;20193;-74
2022/12/22 09:53:19;;;;;;;7.17;5.03;;;;;;;9.06;100.00;96040.34;4973475;28;20636;-74
2022/12/22 09:55:47;;;;;;;9.73;4.53;;;;;;;9.09;100.00;96038.03;4975594;28;20236;-75
2022/12/22 09:58:27;;;;;;;8.53;4.17;;;;;;;9.03;100.00;96038.19;4976801;28;20172;-75
2022/12/22 10:01:25;;;;;;;9.93;5.03;;;;;;;8.98;100.00;96035.47;4958954;28;20216;-75
2022/12/22 10:04:13;;;;;;;9.13;5.23;;;;;;;9.03;100.00;96032.94;4976706;28;20256;-75
2022/12/22 10:07:11;;;;;;;7.20;4.67;;;;;;;9.08;100.00;96048.75;4976605;28;20195;-75
2022/12/22 10:09:36;;;;;;;6.70;4.40;;;;;;;9.13;100.00;96049.63;4936139;28;20193;-75
2022/12/22 10:12:04;;;;;;;8.63;4.20;;;;;;;9.19;100.00;96053.13;4976620;28;20200;-76
2022/12/22 10:14:38;;;;;;;6.27;5.10;;;;;;;9.06;100.00;96046.38;4976744;28;20184;-75
2022/12/22 10:17:30;;;;;;;6.50;5.70;;;;;;;9.17;100.00;96060.41;4974214;28;20214;-75
2022/12/22 10:20:07;;;;;;;6.43;5.03;;;;;;;9.26;100.00;96063.41;4976235;28;20183;-74
2022/12/22 10:22:38;;;;;;;7.20;6.13;;;;;;;9.19;100.00;96060.97;4974022;28;20180;-75
2022/12/22 10:25:05;;;;;;;9.03;5.47;;;;;;;9.30;100.00;96064.56;4948479;29;20280;-73
2022/12/22 10:27:35;;;;;;;5.80;4.50;;;;;;;9.35;100.00;96064.63;4964741;28;20227;-73
2022/12/22 10:30:18;;;;;;;4.70;4.30;;;;;;;9.38;100.00;96079.84;4959408;28;20276;-73
2022/12/22 10:33:09;;;;;;;6.50;4.37;;;;;;;9.52;100.00;96087.16;4975328;28;20267;-73
2022/12/22 10:35:50;;;;;;;12.30;10.90;;;;;;;9.58;100.00;96091.44;4976721;28;20552;-75
2022/12/22 10:38:30;;;;;;;9.03;6.53;;;;;;;9.46;100.00;96085.50;4976650;28;20172;-74
2022/12/22 10:41:13;;;;;;;6.83;4.73;;;;;;;9.59;100.00;96087.00;4976596;28;20267;-74
2022/12/22 10:43:52;;;;;;;5.13;4.20;;;;;;;9.43;100.00;96085.16;4976189;28;20296;-74
2022/12/22 10:46:31;;;;;;;5.33;4.57;;;;;;;9.49;100.00;96089.44;4976441;28;20177;-74
2022/12/22 10:49:25;;;;;;;9.20;4.40;;;;;;;9.48;100.00;96090.47;4976716;28;20568;-74
2022/12/22 10:51:57;;;;;;;5.03;3.93;;;;;;;9.50;100.00;96084.00;4966695;28;20206;-75
2022/12/22 10:54:32;;;;;;;7.03;4.77;;;;;;;9.48;100.00;96086.03;4975556;28;20225;-74
2022/12/22 10:57:15;;;;;;;5.33;4.80;;;;;;;9.44;100.00;96091.97;4975738;28;20218;-74
2022/12/22 10:59:46;;;;;;;4.63;4.27;;;;;;;9.38;100.00;96093.72;4976468;28;20583;-73
2022/12/22 11:02:24;;;;;;;8.93;5.40;;;;;;;9.37;100.00;96081.66;4975351;28;20184;-73
2022/12/22 11:04:51;;;;;;;5.07;4.67;;;;;;;9.32;100.00;96078.97;4976029;28;20267;-73
2022/12/22 11:07:17;;;;;;;6.10;4.20;;;;;;;9.31;100.00;96073.97;4958551;28;20189;-74
2022/12/22 11:09:43;;;;;;;4.27;3.93;;;;;;;9.33;100.00;96067.47;4975673;28;20177;-73
2022/12/22 11:12:18;;;;;;;8.13;4.23;;;;;;;9.32;100.00;96078.16;4976006;28;20193;-73
2022/12/22 11:14:52;;;;;;;8.10;6.70;;;;;;;9.34;100.00;96070.88;4975650;28;20255;-73
2022/12/22 11:17:42;;;;;;;5.37;4.90;;;;;;;9.35;100.00;96064.63;4975815;28;20292;-74
2022/12/22 11:20:32;;;;;;;6.90;4.63;;;;;;;9.52;100.00;96065.44;4958697;28;20210;-75
2022/12/22 11:23:03;;;;;;;4.57;4.00;;;;;;;9.57;100.00;96063.69;4975914;28;20180;-74
2022/12/22 11:25:43;;;;;;;6.30;3.80;;;;;;;9.64;100.00;96066.13;4975762;28;20279;-73
2022/12/22 11:28:25;;;;;;;7.03;4.33;;;;;;;9.80;100.00;96056.72;4975571;28;20172;-74
2022/12/22 11:31:16;;;;;;;11.23;10.10;;;;;;;9.93;100.00;96066.84;4975386;28;20181;-74
2022/12/22 11:34:07;;;;;;;7.27;4.47;;;;;;;9.94;100.00;96066.59;4973888;28;20268;-74
2022/12/22 11:36:51;;;;;;;11.60;10.47;;;;;;;9.92;100.00;96062.63;4975145;28;20220;-74
2022/12/22 11:39:35;;;;;;;8.73;7.97;;;;;;;9.91;100.00;96064.50;4975393;28;20163;-74
2022/12/22 11:42:19;;;;;;;4.27;3.87;;;;;;;9.87;100.00;96052.88;4975133;28;20169;-74
2022/12/22 11:45:03;;;;;;;4.07;3.73;;;;;;;9.92;100.00;96062.63;4975275;28;20180;-74
2022/12/22 11:47:34;;;;;;;4.70;4.30;;;;;;;9.73;100.00;96075.19;4974990;28;20173;-75
2022/12/22 11:50:12;;;;;;;4.10;3.80;;;;;;;9.79;100.00;96083.91;4956168;28;20263;-75
2022/12/22 11:53:05;;;;;;;4.40;4.00;;;;;;;9.96;100.00;96075.03;4976755;28;20268;-73
2022/12/22 11:55:39;;;;;;;72.43;64.73;;;;;;;10.07;100.00;96067.31;4957019;28;20236;-74
2022/12/22 11:58:26;;;;;;;11.23;9.47;;;;;;;10.16;100.00;96064.06;4955917;29;20647;-72
2022/12/22 12:00:59;;;;;;;10.30;9.60;;;;;;;10.13;100.00;96077.63;4964914;28;20184;-75
2022/12/22 12:03:36;;;;;;;6.27;4.73;;;;;;;10.00;100.00;96077.94;4975503;28;20169;-73
2022/12/22 12:06:18;;;;;;;5.67;4.00;;;;;;;10.18;100.00;96072.47;4974975;28;20303;-75
2022/12/22 12:09:15;;;;;;;4.03;3.77;;;;;;;10.22;100.00;96070.16;4974952;28;20200;-72
2022/12/22 12:11:52;;;;;;;5.27;4.87;;;;;;;10.34;100.00;96073.47;4974578;28;20212;-73
2022/12/22 12:14:30;;;;;;;5.07;4.57;;;;;;;10.48;100.00;96077.31;4955592;28;20264;-73
2022/12/22 12:17:11;;;;;;;4.10;3.67;;;;;;;10.64;100.00;96080.94;4938155;29;20212;-74
2022/12/22 12:19:49;;;;;;;6.00;5.60;;;;;;;10.78;100.00;96084.75;4955342;29;20161;-73
2022/12/22 12:22:23;;;;;;;4.87;4.23;;;;;;;10.88;100.00;96092.75;4955786;29;20204;-74
2022/12/22 12:25:00;;;;;;;5.30;4.90;;;;;;;10.77;100.00;96091.84;4954862;29;20276;-74
2022/12/22 12:27:32;;;;;;;4.77;4.47;;;;;;;10.89;100.00;96099.56;4973868;28;20180;-74
2022/12/22 12:29:57;;;;;;;5.93;5.43;;;;;;;10.99;100.00;96098.88;4974415;28;20189;-74
2022/12/22 12:32:41;;;;;;;4.83;4.53;;;;;;;11.27;100.00;96088.97;4972589;28;20223;-74
2022/12/22 12:35:39;;;;;;;8.30;7.57;;;;;;;11.25;100.00;96104.19;4974150;28;20177;-74
2022/12/22 12:38:11;;;;;;;9.27;8.60;;;;;;;11.04;100.00;96089.25;4941033;28;20196;-74
2022/12/22 12:41:15;;;;;;;6.97;3.70;;;;;;;11.04;100.00;96104.97;4956700;28;20267;-74
2022/12/22 12:43:42;;;;;;;3.20;3.00;;;;;;;11.05;100.00;96103.94;4935879;28;20202;-74
2022/12/22 12:46:44;;;;;;;3.70;3.10;;;;;;;11.22;100.00;96111.72;4974172;28;20311;-74
2022/12/22 12:49:49;;;;;;;7.07;3.03;;;;;;;11.30;100.00;96113.13;4954917;29;20193;-74
2022/12/22 12:52:14;;;;;;;4.23;2.93;;;;;;;11.17;100.00;96122.16;4949856;29;20207;-73
2022/12/22 12:54:46;;;;;;;2.87;2.77;;;;;;;11.08;100.00;96118.41;4959507;28;20320;-74
2022/12/22 12:57:27;;;;;;;2.60;2.40;;;;;;;10.96;100.00;96123.78;4973266;28;20568;-74
2022/12/22 12:59:55;;;;;;;2.63;2.40;;;;;;;10.95;100.00;96122.19;4973680;28;20205;-73
2022/12/22 13:02:26;;;;;;;2.73;2.53;;;;;;;10.84;100.00;96121.28;4973552;28;20732;-73
2022/12/22 13:05:11;;;;;;;2.80;2.50;;;;;;;10.70;100.00;96133.16;4974202;28;20673;-73
2022/12/22 13:08:06;;;;;;;4.27;3.23;;;;;;;10.87;100.00;96132.31;4974013;28;20636;-72
2022/12/22 13:10:37;;;;;;;3.40;3.20;;;;;;;10.80;100.00;96143.00;4973287;28;20583;-73
2022/12/22 13:13:03;;;;;;;4.00;3.70;;;;;;;10.88;100.00;96147.00;4966863;28;20201;-73
2022/12/22 13:15:35;;;;;;;5.23;4.03;;;;;;;10.97;100.00;96145.56;4955340;29;20604;-74
2022/12/22 13:18:02;;;;;;;3.17;2.97;;;;;;;10.90;100.00;96152.81;4954736;29;20183;-73
2022/12/22 13:20:34;;;;;;;3.13;2.93;;;;;;;11.21;100.00;96163.41;4954624;29;20182;-73
2022/12/22 13:23:02;;;;;;;5.13;4.73;;;;;;;11.16;100.00;96158.09;4954343;29;20264;-74
2022/12/22 13:25:47;;;;;;;5.00;4.80;;;;;;;10.92;100.00;96166.47;4955113;28;20189;-74
2022/12/22 13:28:18;;;;;;;4.57;4.30;;;;;;;10.92;100.00;96161.22;4940958;29;20176;-74
2022/12/22 13:31:24;;;;;;;4.97;4.67;;;;;;;10.77;100.00;96154.75;4958186;29;20180;-73
2022/12/22 13:33:58;;;;;;;3.50;3.20;;;;;;;10.71;100.00;96171.44;4925817;29;20205;-73
2022/12/22 13:36:27;;;;;;;5.20;4.60;;;;;;;10.75;100.00;96166.53;4958109;29;20300;-73
2022/12/22 13:39:04;;;;;;;4.77;4.27;;;;;;;10.77;100.00;96167.84;4957972;29;20178;-74
2022/12/22 13:41:32;;;;;;;4.53;4.23;;;;;;;10.77;100.00;96175.72;4958094;28;20189;-73
2022/12/22 13:44:04;;;;;;;5.93;5.63;;;;;;;10.94;100.00;96173.03;4940910;29;20550;-74
2022/12/22 13:46:33;;;;;;;6.37;5.97;;;;;;;11.00;100.00;96174.69;4957816;29;20165;-73
2022/12/22 13:49:01;;;;;;;5.63;5.23;;;;;;;11.04;100.00;96172.38;4959698;28;20181;-73
2022/12/22 13:51:31;;;;;;;3.87;3.63;;;;;;;11.06;100.00;96181.59;4976660;28;20699;-73
2022/12/22 13:54:09;;;;;;;4.80;4.50;;;;;;;10.91;100.00;96178.00;4976963;28;20240;-74
2022/12/22 13:56:39;;;;;;;5.47;4.93;;;;;;;10.98;100.00;96184.63;4976005;28;20209;-73
2022/12/22 13:59:16;;;;;;;5.37;4.63;;;;;;;10.97;100.00;96196.16;4977416;28;20173;-74
2022/12/22 14:01:56;;;;;;;4.30;3.83;;;;;;;11.02;100.00;96200.69;4959979;28;20543;-73
2022/12/22 14:04:22;;;;;;;9.23;8.53;;;;;;;11.12;100.00;96201.59;4977331;28;20612;-73
2022/12/22 14:06:47;;;;;;;11.67;10.97;;;;;;;10.98;100.00;96207.44;4977095;28;20192;-73
2022/12/22 14:09:26;;;;;;;10.63;9.97;;;;;;;10.97;100.00;96204.03;4977097;28;20603;-73
2022/12/22 14:12:00;;;;;;;10.20;9.50;;;;;;;10.99;100.00;96193.28;4959584;28;20220;-74
2022/12/22 14:14:30;;;;;;;8.43;7.83;;;;;;;10.96;100.00;96212.13;4959733;28;20187;-73
2022/12/22 14:16:59;;;;;;;6.60;6.10;;;;;;;11.05;100.00;96206.22;4977222;28;20212;-74
2022/12/22 14:19:26;;;;;;;6.37;5.97;;;;;;;11.00;100.00;96203.53;4977190;28;20209;-74
2022/12/22 14:22:14;;;;;;;6.83;6.20;;;;;;;10.97;100.00;96205.84;4960374;28;20287;-74
2022/12/22 14:24:58;;;;;;;10.13;9.23;;;;;;;10.82;100.00;96209.84;4959324;28;20196;-73
2022/12/22 14:27:37;;;;;;;8.47;6.97;;;;;;;10.78;100.00;96202.72;4976519;28;20655;-74
2022/12/22 14:30:14;;;;;;;7.40;6.70;;;;;;;10.94;100.00;96206.31;4976472;28;20583;-73
2022/12/22 14:32:43;;;;;;;8.13;6.73;;;;;;;10.84;100.00;96214.88;4957334;28;20185;-74
2022/12/22 14:35:18;;;;;;;7.10;6.33;;;;;;;10.83;100.00;96210.66;4976720;28;20228;-74
2022/12/22 14:37:44;;;;;;;6.43;5.83;;;;;;;10.77;100.00;96209.78;4975264;28;20195;-73
2022/12/22 14:40:32;;;;;;;9.47;6.70;;;;;;;10.66;100.00;96220.38;4976682;28;20173;-73
2022/12/22 14:42:59;;;;;;;6.73;6.13;;;;;;;10.69;100.00;96220.69;4976353;28;20189;-73
2022/12/22 14:45:25;;;;;;;6.60;6.03;;;;;;;10.70;100.00;96219.63;4976220;28;20189;-73
2022/12/22 14:47:52;;;;;;;7.50;6.80;;;;;;;10.80;100.00;96222.44;4976054;28;20177;-73
2022/12/22 14:50:26;;;;;;;10.73;8.07;;;;;;;10.68;100.00;96218.31;4975015;28;20185;-73
2022/12/22 14:53:00;;;;;;;8.30;7.60;;;;;;;10.63;100.00;96234.75;4976118;28;20204;-75
2022/12/22 14:55:32;;;;;;;9.30;8.47;;;;;;;10.50;100.00;96242.94;4958902;28;20375;-76
2022/12/22 14:58:03;;;;;;;6.57;5.73;;;;;;;10.42;100.00;96238.13;4956760;29;20199;-73
2022/12/22 15:00:38;;;;;;;7.63;5.30;;;;;;;10.42;100.00;96227.63;4956952;29;20264;-74
2022/12/22 15:03:23;;;;;;;8.03;4.33;;;;;;;10.22;100.00;96238.56;4937740;29;20166;-73
2022/12/22 15:05:49;;;;;;;10.03;7.30;;;;;;;10.01;100.00;96231.38;4929992;29;20217;-74
2022/12/22 15:08:35;;;;;;;10.23;7.33;;;;;;;10.00;100.00;96232.41;4937800;29;20178;-74
2022/12/22 15:11:00;;;;;;;8.07;4.90;;;;;;;9.89;100.00;96231.44;4937434;29;20265;-75
2022/12/22 15:13:26;;;;;;;8.13;7.27;;;;;;;9.91;100.00;96237.25;4923268;29;20277;-73
2022/12/22 15:15:52;;;;;;;5.90;4.60;;;;;;;9.79;100.00;96240.94;4955935;29;20281;-73
2022/12/22 15:18:23;;;;;;;7.50;5.67;;;;;;;9.69;100.00;96249.41;4953709;29;20221;-73
2022/12/22 15:20:48;;;;;;;8.93;8.23;;;;;;;9.70;100.00;96252.78;4939024;29;20906;-73
2022/12/22 15:23:17;;;;;;;15.47;14.17;;;;;;;9.72;100.00;96258.59;4955937;29;20246;-73